Time;durP1;ratioP1;P1;durP2;ratioP2;P2;SDS_P1;SDS_P2;PMS_P1;PMS_P2;Temp;Humidity;BMP_temperature;BMP_pressure;BME280_temperature;BME280_humidity;BME280_pressure;Samples;Min_cycle;Max_cycle;Signal;HPM_P1;HPM_P2
2022/11/24 00:00:50;;;;;;;5.72;2.10;;;14.50;99.90;;;;;;5113049;28;20028;-78
2022/11/24 00:03:16;;;;;;;4.60;2.10;;;14.50;99.90;;;;;;5094724;28;20525;-78
2022/11/24 00:05:44;;;;;;;9.60;2.20;;;14.50;99.90;;;;;;5113081;28;20081;-78
2022/11/24 00:08:12;;;;;;;4.85;1.88;;;14.60;99.90;;;;;;5094435;28;20043;-78
2022/11/24 00:10:38;;;;;;;6.75;1.88;;;14.60;99.90;;;;;;5112844;28;20509;-78
2022/11/24 00:13:05;;;;;;;9.00;1.77;;;14.60;99.90;;;;;;5112798;28;20042;-77
2022/11/24 00:15:32;;;;;;;4.80;1.80;;;14.80;99.90;;;;;;5112670;28;20035;-78
2022/11/24 00:17:58;;;;;;;;;;;14.80;99.90;;;;;;5060677;28;20181;-78
2022/11/24 00:20:24;;;;;;;8.05;1.65;;;14.80;99.90;;;;;;5094127;28;19982;-77
2022/11/24 00:22:51;;;;;;;9.43;1.90;;;14.80;99.90;;;;;;5112636;28;20032;-78
2022/11/24 00:25:17;;;;;;;7.07;1.77;;;14.90;99.90;;;;;;5112579;28;20026;-78
2022/11/24 00:27:44;;;;;;;7.70;1.67;;;14.90;99.90;;;;;;5112905;28;20467;-78
2022/11/24 00:30:13;;;;;;;8.07;1.85;;;15.00;99.90;;;;;;5112398;28;20028;-78
2022/11/24 00:32:40;;;;;;;5.57;1.60;;;15.00;99.90;;;;;;5094289;28;20042;-79
2022/11/24 00:35:20;;;;;;;7.75;2.03;;;15.00;99.90;;;;;;5112333;28;20388;-78
2022/11/24 00:37:46;;;;;;;10.73;1.80;;;15.00;99.90;;;;;;5112835;28;20034;-78
2022/11/24 00:40:12;;;;;;;7.90;2.13;;;15.00;99.90;;;;;;5112401;28;20015;-78
2022/11/24 00:42:50;;;;;;;6.88;1.85;;;15.00;99.90;;;;;;5112787;28;20292;-79
2022/11/24 00:45:16;;;;;;;6.35;1.77;;;14.90;99.90;;;;;;5112551;28;20049;-79
2022/11/24 00:47:43;;;;;;;;;;;14.90;99.90;;;;;;5112597;28;20035;-79
2022/11/24 00:50:09;;;;;;;8.05;1.77;;;15.00;99.90;;;;;;5112309;28;19948;-79
2022/11/24 00:52:35;;;;;;;8.65;1.75;;;14.90;99.90;;;;;;5112249;28;20024;-79
2022/11/24 00:55:02;;;;;;;6.95;1.88;;;14.90;99.90;;;;;;5112041;28;20480;-79
2022/11/24 00:57:28;;;;;;;9.95;1.95;;;14.90;99.90;;;;;;5112084;28;20049;-78
2022/11/24 00:59:55;;;;;;;8.02;2.00;;;14.90;99.90;;;;;;5106824;28;20146;-78
2022/11/24 01:02:21;;;;;;;6.22;2.03;;;14.90;99.90;;;;;;5091488;28;20135;-79
2022/11/24 01:04:48;;;;;;;6.97;2.27;;;15.00;99.90;;;;;;5091924;28;20020;-79
2022/11/24 01:07:14;;;;;;;6.63;1.60;;;14.90;99.90;;;;;;5072946;28;20277;-79
2022/11/24 01:09:42;;;;;;;7.27;1.80;;;14.90;99.90;;;;;;5091334;28;20028;-79
2022/11/24 01:12:08;;;;;;;8.38;1.83;;;14.90;99.90;;;;;;5091299;28;20757;-79
2022/11/24 01:14:34;;;;;;;6.82;1.95;;;14.80;99.90;;;;;;5091277;28;20074;-79
2022/11/24 01:17:01;;;;;;;7.05;1.90;;;14.80;99.90;;;;;;5091532;28;20024;-79
2022/11/24 01:19:27;;;;;;;10.10;1.95;;;14.80;99.90;;;;;;5091457;28;20368;-79
2022/11/24 01:21:53;;;;;;;;;;;14.90;99.90;;;;;;5091373;28;20065;-79
2022/11/24 01:24:21;;;;;;;7.20;1.92;;;14.80;99.90;;;;;;5091186;28;19904;-78
2022/11/24 01:26:48;;;;;;;5.43;1.75;;;14.80;99.90;;;;;;5072815;28;20070;-78
2022/11/24 01:29:14;;;;;;;7.95;1.92;;;14.90;99.90;;;;;;5091073;28;20032;-78
2022/11/24 01:31:40;;;;;;;5.27;1.87;;;14.90;99.90;;;;;;5093885;28;20027;-79
2022/11/24 01:34:06;;;;;;;5.63;1.63;;;14.90;99.90;;;;;;5095416;28;20280;-79
2022/11/24 01:36:33;;;;;;;6.85;2.05;;;14.90;99.90;;;;;;5095207;28;20254;-79
2022/11/24 01:38:59;;;;;;;5.82;1.63;;;14.90;99.90;;;;;;5076565;28;20020;-79
2022/11/24 01:41:26;;;;;;;7.83;1.90;;;14.80;99.90;;;;;;5076593;28;20126;-79
2022/11/24 01:43:54;;;;;;;7.35;2.13;;;14.90;99.90;;;;;;5076950;28;20487;-79
2022/11/24 01:46:27;;;;;;;6.80;1.55;;;14.90;99.90;;;;;;5077122;28;20098;-78
2022/11/24 01:48:59;;;;;;;5.15;1.48;;;14.90;99.90;;;;;;5094751;28;20020;-79
2022/11/24 01:51:29;;;;;;;6.35;1.50;;;14.90;99.90;;;;;;5094555;28;20035;-79
2022/11/24 01:54:04;;;;;;;9.05;1.70;;;14.90;99.90;;;;;;5094972;28;20081;-78
2022/11/24 01:56:32;;;;;;;11.45;1.75;;;14.90;99.90;;;;;;5094909;28;20024;-79
2022/11/24 01:59:02;;;;;;;5.65;1.40;;;14.90;99.90;;;;;;5094218;28;20063;-79
2022/11/24 02:01:30;;;;;;;7.75;1.52;;;14.90;99.90;;;;;;5076202;28;20032;-79
2022/11/24 02:04:00;;;;;;;10.10;1.58;;;15.00;99.90;;;;;;5094535;28;20020;-79
2022/11/24 02:06:30;;;;;;;9.25;1.50;;;15.10;99.90;;;;;;5094242;28;20024;-78
2022/11/24 02:09:22;;;;;;;6.45;1.48;;;15.00;99.90;;;;;;5094515;28;20024;-78
2022/11/24 02:11:49;;;;;;;7.72;1.55;;;15.10;99.90;;;;;;5094363;28;20032;-78
2022/11/24 02:14:17;;;;;;;7.93;1.70;;;15.00;99.90;;;;;;5094272;28;20526;-78
2022/11/24 02:16:50;;;;;;;9.82;1.65;;;15.00;99.90;;;;;;5094068;28;20028;-79
2022/11/24 02:19:35;;;;;;;9.63;1.60;;;15.00;99.90;;;;;;5094539;28;20069;-78
2022/11/24 02:22:03;;;;;;;9.38;1.45;;;15.00;99.90;;;;;;5094357;28;20118;-79
2022/11/24 02:24:48;;;;;;;10.13;1.50;;;15.00;99.90;;;;;;5075699;28;20062;-79
2022/11/24 02:27:14;;;;;;;8.00;1.30;;;15.00;99.90;;;;;;5094334;28;20105;-78
2022/11/24 02:29:41;;;;;;;8.20;1.55;;;15.20;99.90;;;;;;5094071;28;20103;-78
2022/11/24 02:32:09;;;;;;;7.00;1.50;;;15.20;99.90;;;;;;5094114;28;20020;-79
2022/11/24 02:34:35;;;;;;;6.55;1.60;;;15.10;99.90;;;;;;5094005;28;20024;-78
2022/11/24 02:37:01;;;;;;;6.65;1.65;;;15.10;99.90;;;;;;5094004;28;20036;-79
2022/11/24 02:39:27;;;;;;;7.13;1.53;;;15.10;99.90;;;;;;5093891;28;20024;-78
2022/11/24 02:42:02;;;;;;;8.93;1.70;;;15.10;99.90;;;;;;5093388;28;20325;-78
2022/11/24 02:44:34;;;;;;;6.13;1.50;;;15.00;99.90;;;;;;5093478;28;20591;-78
2022/11/24 02:47:09;;;;;;;7.90;1.75;;;15.10;99.90;;;;;;5093529;28;20028;-78
2022/11/24 02:49:35;;;;;;;7.93;1.50;;;15.10;99.90;;;;;;5093964;28;20122;-79
2022/11/24 02:52:03;;;;;;;8.27;1.85;;;15.00;99.90;;;;;;5093541;28;20135;-79
2022/11/24 02:54:30;;;;;;;7.85;1.55;;;15.10;99.90;;;;;;5093589;28;20533;-79
2022/11/24 02:56:56;;;;;;;5.97;1.33;;;15.10;99.90;;;;;;5093736;28;20107;-79
2022/11/24 02:59:23;;;;;;;8.27;1.45;;;15.10;99.90;;;;;;5093365;28;20075;-79
2022/11/24 03:01:49;;;;;;;9.68;2.35;;;15.20;99.90;;;;;;5093521;28;20541;-78
2022/11/24 03:04:15;;;;;;;7.95;2.00;;;15.20;99.90;;;;;;5093983;28;20107;-78
2022/11/24 03:06:42;;;;;;;5.43;1.33;;;15.30;99.90;;;;;;5093474;28;20024;-79
2022/11/24 03:09:17;;;;;;;10.43;1.67;;;15.30;99.90;;;;;;5074787;28;20099;-79
2022/11/24 03:11:45;;;;;;;11.40;2.10;;;15.40;99.90;;;;;;5093013;28;20020;-79
2022/11/24 03:14:11;;;;;;;7.30;1.80;;;15.40;99.90;;;;;;5092315;28;20123;-79
2022/11/24 03:16:38;;;;;;;6.72;1.65;;;15.40;99.90;;;;;;5075016;28;20039;-79
2022/11/24 03:19:04;;;;;;;7.63;2.22;;;15.30;99.90;;;;;;5092883;28;20051;-78
2022/11/24 03:21:30;;;;;;;8.95;2.15;;;15.40;99.90;;;;;;5092801;28;20444;-79
2022/11/24 03:23:57;;;;;;;12.52;2.10;;;15.40;99.90;;;;;;5092911;28;20024;-78
2022/11/24 03:26:24;;;;;;;14.25;2.15;;;15.30;99.90;;;;;;5092610;28;20023;-78
2022/11/24 03:28:54;;;;;;;12.52;2.50;;;15.40;99.90;;;;;;5092583;28;20016;-78
2022/11/24 03:31:23;;;;;;;10.90;2.47;;;15.30;99.90;;;;;;5092426;28;20019;-78
2022/11/24 03:33:49;;;;;;;14.00;2.50;;;15.30;99.90;;;;;;5099609;22;20056;-79
2022/11/24 03:36:15;;;;;;;15.10;2.80;;;15.30;99.90;;;;;;5092887;28;20202;-78
2022/11/24 03:38:42;;;;;;;13.63;2.20;;;15.30;99.90;;;;;;5092842;28;20266;-78
2022/11/24 03:41:09;;;;;;;12.73;2.22;;;15.20;99.90;;;;;;5092268;28;20136;-78
2022/11/24 03:43:35;;;;;;;9.48;1.73;;;15.20;99.90;;;;;;5091445;28;20027;-78
2022/11/24 03:46:01;;;;;;;11.88;2.33;;;15.20;99.90;;;;;;5073334;28;20421;-78
2022/11/24 03:48:28;;;;;;;11.45;2.13;;;15.20;99.90;;;;;;5091768;28;20352;-78
2022/11/24 03:51:01;;;;;;;14.32;2.70;;;15.10;99.90;;;;;;5091888;28;20085;-79
2022/11/24 03:53:30;;;;;;;11.02;1.77;;;15.10;99.90;;;;;;5072274;28;20048;-79
2022/11/24 03:55:57;;;;;;;12.82;1.58;;;15.10;99.90;;;;;;5091143;28;20040;-79
2022/11/24 03:58:23;;;;;;;11.98;1.92;;;15.10;99.90;;;;;;5091311;28;20032;-77
2022/11/24 04:00:51;;;;;;;15.02;2.30;;;15.10;99.90;;;;;;5091787;28;20079;-79
2022/11/24 04:03:18;;;;;;;13.60;2.03;;;15.10;99.90;;;;;;5092088;28;20107;-79
2022/11/24 04:05:44;;;;;;;13.25;2.00;;;15.10;99.90;;;;;;5073353;28;20066;-79
2022/11/24 04:08:11;;;;;;;14.55;2.03;;;15.10;99.90;;;;;;5092184;28;20024;-78
2022/11/24 04:10:38;;;;;;;12.18;1.88;;;15.10;99.90;;;;;;5072761;28;20051;-78
2022/11/24 04:13:10;;;;;;;21.13;2.38;;;15.10;99.90;;;;;;5092204;28;20069;-78
2022/11/24 04:15:41;;;;;;;12.00;2.08;;;15.10;99.90;;;;;;5092443;28;20036;-78
2022/11/24 04:18:08;;;;;;;15.02;2.28;;;15.10;99.90;;;;;;5092028;28;20020;-78
2022/11/24 04:20:36;;;;;;;14.93;2.38;;;15.10;99.90;;;;;;5091816;28;20121;-79
2022/11/24 04:23:02;;;;;;;17.20;2.30;;;15.10;99.90;;;;;;5073587;28;20028;-78
2022/11/24 04:25:29;;;;;;;15.13;2.28;;;15.10;99.90;;;;;;5074436;28;20024;-74
2022/11/24 04:27:56;;;;;;;15.02;2.20;;;15.10;99.90;;;;;;5072306;28;20036;-78
2022/11/24 04:30:23;;;;;;;;;;;15.10;99.90;;;;;;5073056;28;20021;-78
2022/11/24 04:32:49;;;;;;;13.82;2.10;;;15.10;99.90;;;;;;5072446;28;19947;-78
2022/11/24 04:35:15;;;;;;;16.45;2.45;;;15.10;99.90;;;;;;5072336;28;20488;-79
2022/11/24 04:37:41;;;;;;;17.38;2.95;;;15.10;99.90;;;;;;5072437;28;20020;-78
2022/11/24 04:40:09;;;;;;;14.13;2.17;;;15.10;99.90;;;;;;5054610;28;20123;-78
2022/11/24 04:42:36;;;;;;;15.30;2.10;;;15.00;99.90;;;;;;5072769;28;20077;-78
2022/11/24 04:45:03;;;;;;;12.82;2.35;;;15.10;99.90;;;;;;5054278;28;20420;-77
2022/11/24 04:47:29;;;;;;;17.38;2.78;;;15.00;99.90;;;;;;5070960;28;20028;-75
2022/11/24 04:49:57;;;;;;;18.85;2.63;;;15.00;99.90;;;;;;5072762;28;20433;-73
2022/11/24 04:52:25;;;;;;;16.80;2.20;;;15.00;99.90;;;;;;5075618;28;20020;-78
2022/11/24 04:54:51;;;;;;;18.48;2.67;;;15.00;99.90;;;;;;5092487;28;20093;-78
2022/11/24 04:57:24;;;;;;;10.63;2.28;;;15.10;99.90;;;;;;5092563;28;20387;-79
2022/11/24 04:59:51;;;;;;;13.18;2.58;;;15.00;99.90;;;;;;5092522;28;20056;-79
2022/11/24 05:02:18;;;;;;;13.75;2.45;;;15.10;99.90;;;;;;5092148;28;20081;-79
2022/11/24 05:04:44;;;;;;;13.88;2.42;;;15.10;99.90;;;;;;5074114;28;20028;-79
2022/11/24 05:07:14;;;;;;;13.55;2.00;;;15.10;99.90;;;;;;5096276;28;20437;-78
2022/11/24 05:12:29;;;;;;;12.15;1.90;;;15.10;99.90;;;;;;5096413;28;20125;-78
2022/11/24 05:15:03;;;;;;;12.85;2.00;;;15.10;99.90;;;;;;5096824;28;20031;-78
2022/11/24 05:17:31;;;;;;;13.05;2.50;;;15.10;99.90;;;;;;5096559;28;20043;-78
2022/11/24 05:19:58;;;;;;;11.23;1.73;;;15.10;99.90;;;;;;5096616;28;20388;-78
2022/11/24 05:22:24;;;;;;;10.10;1.70;;;15.10;99.90;;;;;;5078583;28;20044;-79
2022/11/24 05:24:51;;;;;;;12.75;2.20;;;15.10;99.90;;;;;;5097142;28;20453;-78
2022/11/24 05:27:17;;;;;;;11.32;1.90;;;15.20;99.90;;;;;;5078625;28;20047;-78
2022/11/24 05:29:45;;;;;;;11.15;1.77;;;15.20;99.90;;;;;;5096413;28;20035;-79
2022/11/24 05:32:11;;;;;;;12.25;1.83;;;15.20;99.90;;;;;;5079022;28;20034;-79
2022/11/24 05:34:38;;;;;;;11.73;1.48;;;15.20;99.90;;;;;;5078046;28;20044;-78
2022/11/24 05:37:05;;;;;;;5.45;1.23;;;15.20;99.90;;;;;;5096407;28;20093;-79
2022/11/24 05:39:32;;;;;;;;;;;15.20;99.90;;;;;;5097276;28;20103;-79
2022/11/24 05:41:58;;;;;;;7.20;1.30;;;15.20;99.90;;;;;;5096174;28;19919;-80
2022/11/24 05:44:51;;;;;;;7.95;1.67;;;15.20;99.90;;;;;;5096203;28;20464;-80
2022/11/24 05:47:17;;;;;;;7.57;1.27;;;15.20;99.90;;;;;;5096084;28;20144;-79
2022/11/24 05:49:43;;;;;;;4.82;1.10;;;15.20;99.90;;;;;;5096047;28;20164;-80
2022/11/24 05:52:10;;;;;;;8.15;1.10;;;15.30;99.90;;;;;;5077230;28;20031;-79
2022/11/24 05:54:37;;;;;;;6.82;1.52;;;15.30;99.90;;;;;;5075625;28;20033;-78
2022/11/24 05:57:03;;;;;;;3.75;0.93;;;15.30;99.90;;;;;;5075251;28;20473;-79
2022/11/24 05:59:29;;;;;;;6.53;1.05;;;15.40;99.90;;;;;;5057013;28;20024;-78
2022/11/24 06:01:55;;;;;;;7.17;1.70;;;15.40;99.90;;;;;;5074922;28;20075;-81
2022/11/24 06:04:21;;;;;;;4.47;1.10;;;15.40;99.90;;;;;;5074811;28;20024;-79
2022/11/24 06:06:47;;;;;;;6.37;1.07;;;15.50;99.90;;;;;;5075019;28;20020;-78
2022/11/24 06:09:14;;;;;;;;;;;15.50;99.90;;;;;;5075632;28;20262;-79
2022/11/24 06:11:42;;;;;;;5.57;0.93;;;15.60;99.90;;;;;;5074440;28;20357;-78
2022/11/24 06:14:09;;;;;;;6.63;1.05;;;15.90;99.90;;;;;;5057006;28;20448;-78
2022/11/24 06:16:35;;;;;;;3.70;0.93;;;16.30;99.90;;;;;;5074561;28;20032;-77
2022/11/24 06:19:01;;;;;;;7.40;1.27;;;16.80;99.90;;;;;;5074951;28;20025;-77
2022/11/24 06:21:27;;;;;;;4.93;1.10;;;17.30;99.90;;;;;;5075302;28;20036;-77
2022/11/24 06:23:57;;;;;;;9.48;2.30;;;18.00;99.90;;;;;;5075281;28;20024;-77
2022/11/24 06:26:23;;;;;;;6.53;1.15;;;18.70;99.90;;;;;;5074744;28;20157;-78
2022/11/24 06:28:49;;;;;;;5.22;1.20;;;19.60;99.90;;;;;;5080026;28;20051;-84
2022/11/24 06:31:15;;;;;;;4.10;1.00;;;20.30;99.90;;;;;;5105409;28;20024;-79
2022/11/24 06:33:41;;;;;;;5.95;1.20;;;21.00;99.90;;;;;;5114584;28;20051;-78
2022/11/24 06:36:12;;;;;;;4.53;0.90;;;21.30;99.90;;;;;;5096132;28;20082;-80
2022/11/24 06:38:38;;;;;;;5.65;0.90;;;21.10;99.90;;;;;;5114600;28;20028;-80
2022/11/24 06:41:07;;;;;;;2.67;0.90;;;21.40;99.90;;;;;;5096213;28;20042;-80
2022/11/24 06:43:33;;;;;;;5.20;0.95;;;22.10;99.90;;;;;;5114951;28;20111;-80
2022/11/24 06:45:59;;;;;;;;;;;22.70;99.90;;;;;;5114530;28;20024;-79
2022/11/24 06:48:26;;;;;;;5.40;1.10;;;22.80;99.90;;;;;;5113935;28;20262;-79
2022/11/24 06:50:52;;;;;;;3.83;0.90;;;23.10;99.90;;;;;;5095291;28;20193;-80
2022/11/24 06:53:19;;;;;;;4.85;0.80;;;23.30;99.90;;;;;;5113601;28;20023;-80
2022/11/24 06:55:46;;;;;;;4.38;1.08;;;23.80;99.90;;;;;;5113669;28;20031;-80
2022/11/24 06:58:12;;;;;;;3.65;1.00;;;24.00;99.90;;;;;;5113660;28;20012;-80
2022/11/24 07:00:38;;;;;;;3.70;1.10;;;23.70;99.90;;;;;;5094270;28;20114;-81
2022/11/24 07:03:04;;;;;;;3.13;1.30;;;23.10;99.90;;;;;;5113467;28;20353;-76
2022/11/24 07:05:30;;;;;;;4.22;1.40;;;22.90;99.90;;;;;;5113464;28;20023;-75
2022/11/24 07:07:59;;;;;;;6.18;1.35;;;22.30;99.90;;;;;;5113205;28;20019;-80
2022/11/24 07:10:25;;;;;;;7.70;1.55;;;21.70;99.90;;;;;;5113527;28;20027;-77
2022/11/24 07:12:51;;;;;;;4.82;1.15;;;21.30;99.90;;;;;;5094672;28;20062;-77
2022/11/24 07:15:17;;;;;;;4.90;1.23;;;21.70;99.90;;;;;;5112996;28;20032;-77
2022/11/24 07:17:43;;;;;;;7.47;1.55;;;22.10;99.90;;;;;;5094859;28;20047;-77
2022/11/24 07:20:09;;;;;;;6.38;1.45;;;22.10;99.90;;;;;;5113299;28;20066;-76
2022/11/24 07:22:35;;;;;;;6.03;1.55;;;21.80;99.90;;;;;;5094739;28;20032;-72
2022/11/24 07:25:05;;;;;;;3.92;1.30;;;21.40;99.90;;;;;;5113957;28;20023;-77
2022/11/24 07:27:32;;;;;;;7.13;1.38;;;21.00;99.90;;;;;;5114308;28;20042;-77
2022/11/24 07:29:58;;;;;;;9.40;1.50;;;20.10;99.90;;;;;;5094628;28;20020;-77
2022/11/24 07:32:24;;;;;;;6.55;1.50;;;19.40;99.90;;;;;;5114082;28;20020;-77
2022/11/24 07:34:50;;;;;;;10.00;1.50;;;18.90;99.90;;;;;;5113643;28;20047;-77
2022/11/24 07:37:16;;;;;;;7.10;1.52;;;18.80;99.90;;;;;;5113954;28;20028;-77
2022/11/24 07:39:43;;;;;;;8.60;1.98;;;18.70;99.90;;;;;;5113981;28;20028;-77
2022/11/24 07:42:10;;;;;;;7.43;1.88;;;18.80;99.90;;;;;;5113455;28;20474;-77
2022/11/24 07:44:36;;;;;;;7.30;1.65;;;19.10;99.90;;;;;;5113786;28;20072;-77
2022/11/24 07:47:02;;;;;;;11.48;1.60;;;19.50;99.90;;;;;;5113932;28;20081;-77
2022/11/24 07:49:28;;;;;;;5.53;1.23;;;19.80;99.90;;;;;;5113443;28;20064;-77
2022/11/24 07:51:55;;;;;;;6.05;1.40;;;20.10;99.90;;;;;;5113484;28;20024;-77
2022/11/24 07:54:21;;;;;;;7.47;1.60;;;20.20;99.90;;;;;;5095039;28;20103;-77
2022/11/24 07:56:49;;;;;;;7.53;1.63;;;20.30;99.90;;;;;;5113736;28;20134;-76
2022/11/24 07:59:15;;;;;;;7.15;1.60;;;20.40;99.90;;;;;;5113267;28;20023;-76
2022/11/24 08:01:41;;;;;;;6.93;1.38;;;20.40;99.90;;;;;;5113430;28;20490;-77
2022/11/24 08:04:07;;;;;;;11.00;1.45;;;20.40;99.90;;;;;;5113754;28;20020;-76
2022/11/24 08:06:34;;;;;;;5.90;1.80;;;20.60;99.90;;;;;;5113125;28;20055;-76
2022/11/24 08:09:00;;;;;;;7.97;1.77;;;20.80;99.90;;;;;;5103658;28;20472;-76
2022/11/24 08:11:26;;;;;;;7.13;1.70;;;20.80;99.90;;;;;;5075887;28;20372;-77
2022/11/24 08:13:52;;;;;;;;;;;20.90;99.90;;;;;;5113480;28;20483;-77
2022/11/24 08:16:19;;;;;;;13.52;5.65;;;21.00;99.90;;;;;;5112859;28;19935;-77
2022/11/24 08:18:54;;;;;;;7.88;2.05;;;21.10;99.90;;;;;;5113074;28;20062;-78
2022/11/24 08:21:21;;;;;;;7.78;2.35;;;21.20;99.90;;;;;;5112935;28;20072;-79
2022/11/24 08:23:48;;;;;;;8.00;2.05;;;21.20;99.90;;;;;;5112433;28;20090;-79
2022/11/24 08:26:17;;;;;;;7.13;2.20;;;21.00;99.90;;;;;;5093254;28;20475;-80
2022/11/24 08:28:45;;;;;;;8.13;2.13;;;20.90;99.90;;;;;;5093438;28;20123;-80
2022/11/24 08:31:15;;;;;;;7.10;1.73;;;20.80;99.90;;;;;;5112384;28;20540;-80
2022/11/24 08:33:42;;;;;;;9.05;2.08;;;20.80;99.90;;;;;;5111803;28;20066;-80
2022/11/24 08:36:12;;;;;;;8.52;2.15;;;21.00;99.90;;;;;;5112284;28;20028;-80
2022/11/24 08:38:40;;;;;;;8.77;3.20;;;21.00;99.90;;;;;;5112205;28;20063;-80
2022/11/24 08:41:09;;;;;;;7.38;1.65;;;20.80;99.90;;;;;;5112012;28;20078;-81
2022/11/24 08:43:35;;;;;;;8.63;2.10;;;20.70;99.90;;;;;;5113219;28;20128;-81
2022/11/24 08:46:05;;;;;;;6.28;1.80;;;20.80;99.90;;;;;;5112566;28;20032;-81
2022/11/24 08:48:31;;;;;;;6.63;1.70;;;20.80;99.90;;;;;;5112705;28;20024;-81
2022/11/24 08:50:58;;;;;;;11.20;2.10;;;20.50;99.90;;;;;;5112022;28;20209;-82
2022/11/24 08:53:26;;;;;;;10.82;2.25;;;20.40;99.90;;;;;;5112410;28;20065;-80
2022/11/24 08:55:57;;;;;;;8.02;1.92;;;20.40;99.90;;;;;;5094020;28;20027;-80
2022/11/24 08:58:24;;;;;;;6.32;2.17;;;20.50;99.90;;;;;;5112293;28;20417;-82
2022/11/24 09:00:50;;;;;;;6.15;1.95;;;20.70;99.90;;;;;;5111622;28;20032;-81
2022/11/24 09:03:16;;;;;;;13.25;3.65;;;20.80;99.90;;;;;;5111957;28;20027;-79
2022/11/24 09:05:44;;;;;;;6.47;2.10;;;20.50;99.90;;;;;;5111988;28;20024;-81
2022/11/24 09:08:11;;;;;;;10.77;2.47;;;20.20;99.90;;;;;;5112108;28;20024;-81
2022/11/24 09:10:37;;;;;;;11.07;2.15;;;20.10;99.90;;;;;;5112075;28;20550;-81
2022/11/24 09:13:03;;;;;;;11.77;2.00;;;20.20;99.90;;;;;;5112062;28;20038;-81
2022/11/24 09:15:29;;;;;;;11.85;1.90;;;20.50;99.90;;;;;;5111914;28;20015;-81
2022/11/24 09:17:56;;;;;;;8.77;1.65;;;20.40;99.90;;;;;;5112134;28;20019;-81
2022/11/24 09:20:22;;;;;;;9.65;2.15;;;20.00;99.90;;;;;;5093973;28;20023;-81
2022/11/24 09:22:48;;;;;;;7.05;1.45;;;20.00;99.90;;;;;;5093836;28;20035;-81
2022/11/24 09:25:14;;;;;;;8.35;1.80;;;19.80;99.90;;;;;;5109629;28;20056;-81
2022/11/24 09:27:41;;;;;;;10.23;2.00;;;20.00;99.90;;;;;;5110486;28;20062;-81
2022/11/24 09:30:08;;;;;;;9.52;2.40;;;20.10;99.90;;;;;;5091507;28;20032;-80
2022/11/24 09:32:34;;;;;;;10.77;2.58;;;20.10;99.90;;;;;;5090981;28;20020;-81
2022/11/24 09:35:00;;;;;;;10.32;3.13;;;20.20;99.90;;;;;;5101139;28;20112;-81
2022/11/24 09:37:26;;;;;;;10.43;3.47;;;20.00;99.90;;;;;;5112159;28;20106;-80
2022/11/24 09:39:52;;;;;;;11.38;4.00;;;20.00;99.90;;;;;;5112244;28;20047;-82
2022/11/24 09:42:38;;;;;;;14.35;4.10;;;20.20;99.90;;;;;;5108581;28;20356;-82
2022/11/24 09:45:30;;;;;;;11.75;3.53;;;20.30;99.90;;;;;;5091249;28;20357;-81
2022/11/24 09:48:02;;;;;;;9.20;3.03;;;20.50;99.90;;;;;;5071736;28;20107;-81
2022/11/24 09:50:36;;;;;;;10.07;2.90;;;20.60;99.90;;;;;;5073722;28;20396;-81
2022/11/24 09:53:09;;;;;;;12.35;2.42;;;20.50;99.90;;;;;;5096551;28;20058;-81
2022/11/24 09:55:52;;;;;;;12.77;2.40;;;20.60;99.90;;;;;;5114495;28;20531;-81
2022/11/24 09:58:44;;;;;;;8.48;1.60;;;20.20;99.90;;;;;;5105968;28;20109;-75
2022/11/24 10:01:15;;;;;;;9.40;2.05;;;19.80;99.90;;;;;;5104106;28;20470;-76
2022/11/24 10:03:44;;;;;;;11.95;2.03;;;19.90;99.90;;;;;;5094837;28;20043;-79
2022/11/24 10:06:26;;;;;;;14.13;2.53;;;20.10;99.90;;;;;;5076530;28;20028;-81
2022/11/24 10:09:19;;;;;;;14.00;1.98;;;20.30;99.90;;;;;;5094416;28;20055;-82
2022/11/24 10:12:29;;;;;;;11.02;1.80;;;20.40;99.90;;;;;;5089053;28;20118;-82
2022/11/24 10:15:24;;;;;;;14.30;2.05;;;20.30;99.90;;;;;;5090322;28;20020;-82
2022/11/24 10:17:56;;;;;;;8.87;1.70;;;20.60;99.90;;;;;;5095244;28;20150;-83
2022/11/24 10:20:57;;;;;;;8.52;1.65;;;20.50;99.90;;;;;;5076582;28;20115;-83
2022/11/24 10:23:30;;;;;;;10.77;2.00;;;20.70;99.90;;;;;;5094860;28;20130;-83
2022/11/24 10:25:59;;;;;;;16.73;2.55;;;20.70;99.90;;;;;;5076767;28;20097;-81
2022/11/24 10:28:52;;;;;;;11.02;1.80;;;20.60;99.90;;;;;;5094827;28;20028;-82
2022/11/24 10:31:46;;;;;;;7.75;1.52;;;20.80;99.90;;;;;;5093864;28;20437;-83
2022/11/24 10:34:21;;;;;;;9.57;1.73;;;21.00;99.90;;;;;;5089965;28;20139;-83
2022/11/24 10:37:13;;;;;;;8.20;1.85;;;20.90;99.90;;;;;;5075346;28;20067;-82
2022/11/24 10:39:47;;;;;;;9.15;1.67;;;21.00;99.90;;;;;;5087249;28;20047;-83
2022/11/24 10:42:31;;;;;;;13.52;2.00;;;20.90;99.90;;;;;;5093780;28;20060;-83
2022/11/24 10:45:10;;;;;;;10.75;2.78;;;21.10;99.90;;;;;;5075303;28;20085;-83
2022/11/24 10:47:37;;;;;;;8.98;1.80;;;21.20;99.90;;;;;;5093844;28;20102;-81
2022/11/24 10:50:11;;;;;;;11.10;1.73;;;21.20;99.90;;;;;;5093844;28;20043;-83
2022/11/24 10:52:45;;;;;;;10.27;2.30;;;21.30;99.90;;;;;;5078747;28;20050;-82
2022/11/24 10:55:11;;;;;;;13.25;2.20;;;21.40;99.90;;;;;;5093847;28;20053;-84
2022/11/24 10:57:39;;;;;;;14.88;2.03;;;21.50;99.90;;;;;;5093684;28;20031;-82
2022/11/24 11:00:17;;;;;;;9.30;1.65;;;21.60;99.90;;;;;;5075821;28;20039;-82
2022/11/24 11:02:44;;;;;;;10.18;1.80;;;21.50;99.90;;;;;;5093288;28;20040;-80
2022/11/24 11:05:32;;;;;;;9.57;1.67;;;21.60;99.90;;;;;;5093341;28;20019;-81
2022/11/24 11:08:15;;;;;;;10.48;2.10;;;21.50;99.90;;;;;;5094079;28;20533;-82
2022/11/24 11:10:43;;;;;;;7.88;1.60;;;21.40;99.90;;;;;;5087254;28;20020;-80
2022/11/24 11:13:28;;;;;;;14.05;1.88;;;21.30;99.90;;;;;;5093718;28;20027;-78
2022/11/24 11:15:56;;;;;;;14.27;2.05;;;21.30;99.90;;;;;;5093387;28;20085;-82
2022/11/24 11:18:26;;;;;;;10.32;2.08;;;21.10;99.90;;;;;;5093498;28;20020;-80
2022/11/24 11:20:57;;;;;;;14.93;2.65;;;21.20;99.90;;;;;;5074572;28;20123;-81
2022/11/24 11:23:28;;;;;;;14.73;3.38;;;21.40;99.90;;;;;;5092733;28;20028;-80
2022/11/24 11:26:29;;;;;;;17.65;2.53;;;21.30;99.90;;;;;;5093450;28;20023;-80
2022/11/24 11:29:14;;;;;;;11.15;2.10;;;21.40;99.90;;;;;;5088990;28;20020;-81
2022/11/24 11:31:40;;;;;;;14.07;1.98;;;21.20;99.90;;;;;;5085845;28;20024;-80
2022/11/24 11:34:09;;;;;;;14.35;2.30;;;21.20;99.90;;;;;;5092530;28;20051;-81
2022/11/24 11:36:47;;;;;;;13.18;1.90;;;21.40;99.90;;;;;;5093137;28;20027;-81
2022/11/24 11:39:35;;;;;;;10.07;1.73;;;21.50;99.90;;;;;;5093512;28;20024;-79
2022/11/24 11:42:25;;;;;;;11.55;2.03;;;21.50;99.90;;;;;;5092838;28;20137;-79
2022/11/24 11:44:54;;;;;;;11.32;1.83;;;21.60;99.90;;;;;;5030571;28;20049;-81
2022/11/24 11:47:35;;;;;;;13.70;1.75;;;21.60;99.90;;;;;;5030922;28;20061;-79
2022/11/24 11:50:01;;;;;;;9.68;1.85;;;21.70;99.90;;;;;;5030897;28;20131;-80
2022/11/24 11:52:51;;;;;;;9.05;1.40;;;21.80;99.90;;;;;;5013504;28;20510;-80
2022/11/24 11:55:54;;;;;;;12.27;1.88;;;21.90;99.90;;;;;;5030972;28;20060;-80
2022/11/24 11:58:23;;;;;;;9.77;1.73;;;22.20;99.90;;;;;;5030048;28;20037;-75
2022/11/24 12:00:59;;;;;;;13.18;1.90;;;22.40;99.90;;;;;;5029926;28;20556;-78
2022/11/24 12:03:43;;;;;;;9.27;2.05;;;22.30;99.90;;;;;;5031435;28;20171;-79
2022/11/24 12:06:35;;;;;;;7.93;1.33;;;22.30;99.90;;;;;;5013496;28;20089;-79
2022/11/24 12:09:04;;;;;;;11.80;1.70;;;22.00;99.90;;;;;;5027089;28;20041;-79
2022/11/24 12:11:45;;;;;;;11.20;1.65;;;22.00;99.90;;;;;;5013355;28;20059;-80
2022/11/24 12:14:19;;;;;;;7.75;1.48;;;22.10;99.90;;;;;;5029950;28;20063;-80
2022/11/24 12:17:26;;;;;;;7.30;1.65;;;22.10;99.90;;;;;;5029974;28;20037;-79
2022/11/24 12:20:12;;;;;;;10.07;1.80;;;22.00;99.90;;;;;;5010127;28;20030;-80
2022/11/24 12:22:54;;;;;;;;;;;21.90;99.90;;;;;;5035986;28;20064;-80
2022/11/24 12:26:04;;;;;;;10.80;1.50;;;22.10;99.90;;;;;;5049543;28;19958;-80
2022/11/24 12:28:54;;;;;;;7.50;1.77;;;22.00;99.90;;;;;;5069060;28;20048;-80
2022/11/24 12:31:34;;;;;;;10.77;1.73;;;21.70;99.90;;;;;;5069918;28;20131;-80
2022/11/24 12:34:11;;;;;;;7.35;1.42;;;21.80;99.90;;;;;;5069184;28;20053;-80
2022/11/24 12:37:04;;;;;;;14.32;1.95;;;21.90;99.90;;;;;;5069859;28;20494;-80
2022/11/24 12:39:52;;;;;;;9.05;1.70;;;21.90;99.90;;;;;;5069974;28;20138;-81
2022/11/24 12:42:44;;;;;;;9.73;2.05;;;21.80;99.90;;;;;;5070262;28;20040;-80
2022/11/24 12:45:34;;;;;;;10.18;2.08;;;22.10;99.90;;;;;;5071526;28;20185;-79
2022/11/24 12:48:32;;;;;;;10.88;2.28;;;22.10;99.90;;;;;;5070860;28;20028;-79
2022/11/24 12:50:59;;;;;;;8.32;2.03;;;22.20;99.90;;;;;;5097678;28;20030;-81
2022/11/24 12:53:32;;;;;;;10.52;2.20;;;22.40;99.90;;;;;;5112151;28;20054;-80
2022/11/24 12:56:16;;;;;;;8.18;1.73;;;22.50;99.90;;;;;;5112431;28;20471;-79
2022/11/24 12:58:51;;;;;;;11.02;1.85;;;22.50;99.90;;;;;;5112521;28;20032;-83
2022/11/24 13:01:39;;;;;;;5.78;1.70;;;22.50;99.90;;;;;;5112081;28;20069;-81
2022/11/24 13:04:32;;;;;;;10.07;1.63;;;22.40;99.90;;;;;;5094388;28;20428;-82
2022/11/24 13:07:09;;;;;;;11.55;2.00;;;21.90;99.90;;;;;;5112648;28;20080;-82